CCA1692 ZUUU-ZULS
Flight info
| Callsign | CCA1692 |
|---|---|
| Flight time | 2h 3m |
| Altitude | 34100 |
| Route | MUMGO9W MUMGO B213 LXA |
| Aircraft | A20N/M-SDE2E3FGHIRWXY/LB1 |
Departure
| Time | 2026-04-21 12:07 |
|---|---|
| Airport | Chengdu Shuangliu International Airport (ZUUU) |
Arrival
| Time | 2026-04-21 14:11 |
|---|---|
| Airport | Lhasa Gonggar International Airport (ZULS) |
| Time | Latitude | Longitude | Altitude | Speed | Heading |
|---|---|---|---|---|---|
| 2026-04-21 11:41 | 30.56824 | 103.95347 | 1635 ft | 0 kts | 21° |
| 2026-04-21 11:56 | 30.56815 | 103.95343 | 1635 ft | 2 kts | 21° |
| 2026-04-21 11:56 | 30.56805 | 103.95338 | 1635 ft | 2 kts | 21° |
| 2026-04-21 11:57 | 30.56793 | 103.95333 | 1635 ft | 2 kts | 21° |
| 2026-04-21 11:57 | 30.56781 | 103.95327 | 1635 ft | 1 kts | 21° |
| 2026-04-21 11:57 | 30.56772 | 103.95323 | 1635 ft | 2 kts | 12° |
| 2026-04-21 11:57 | 30.56762 | 103.95322 | 1635 ft | 2 kts | 356° |
| 2026-04-21 11:58 | 30.56751 | 103.95325 | 1635 ft | 2 kts | 341° |
| 2026-04-21 11:58 | 30.56736 | 103.95335 | 1635 ft | 2 kts | 316° |
| 2026-04-21 11:58 | 30.56727 | 103.95348 | 1635 ft | 1 kts | 297° |
| 2026-04-21 11:58 | 30.56724 | 103.95352 | 1635 ft | 1 kts | 288° |
| 2026-04-21 11:59 | 30.56723 | 103.95358 | 1635 ft | 0 kts | 291° |
| 2026-04-21 12:01 | 30.56726 | 103.95350 | 1635 ft | 1 kts | 291° |
| 2026-04-21 12:01 | 30.56728 | 103.95322 | 1635 ft | 6 kts | 248° |
| 2026-04-21 12:02 | 30.56691 | 103.95270 | 1635 ft | 9 kts | 243° |
| 2026-04-21 12:02 | 30.56741 | 103.95086 | 1635 ft | 15 kts | 291° |
| 2026-04-21 12:02 | 30.56787 | 103.94950 | 1635 ft | 16 kts | 291° |
| 2026-04-21 12:03 | 30.56839 | 103.94804 | 1635 ft | 16 kts | 292° |
| 2026-04-21 12:03 | 30.56892 | 103.94653 | 1635 ft | 16 kts | 292° |
| 2026-04-21 12:03 | 30.56855 | 103.94558 | 1635 ft | 10 kts | 201° |
| 2026-04-21 12:03 | 30.56740 | 103.94505 | 1635 ft | 16 kts | 202° |
| 2026-04-21 12:04 | 30.56601 | 103.94441 | 1635 ft | 18 kts | 201° |
| 2026-04-21 12:04 | 30.56462 | 103.94376 | 1635 ft | 17 kts | 201° |
| 2026-04-21 12:04 | 30.56348 | 103.94325 | 1635 ft | 17 kts | 201° |
| 2026-04-21 12:04 | 30.56274 | 103.94244 | 1635 ft | 15 kts | 285° |
| 2026-04-21 12:05 | 30.56306 | 103.94150 | 1635 ft | 0 kts | 291° |
| 2026-04-21 12:05 | 30.56307 | 103.94146 | 1635 ft | 1 kts | 291° |
| 2026-04-21 12:05 | 30.56313 | 103.94128 | 1635 ft | 3 kts | 291° |
| 2026-04-21 12:05 | 30.56335 | 103.94062 | 1635 ft | 11 kts | 294° |
| 2026-04-21 12:06 | 30.56406 | 103.94028 | 1635 ft | 13 kts | 19° |
| 2026-04-21 12:06 | 30.56458 | 103.94050 | 1635 ft | 18 kts | 20° |
| 2026-04-21 12:06 | 30.56850 | 103.94232 | 1635 ft | 100 kts | 22° |
| 2026-04-21 12:06 | 30.57712 | 103.94639 | 1636 ft | 165 kts | 21° |
| 2026-04-21 12:07 | 30.58928 | 103.95193 | 1884 ft | 198 kts | 22° |
| 2026-04-21 12:07 | 30.60159 | 103.95719 | 2784 ft | 191 kts | 13° |
| 2026-04-21 12:07 | 30.61420 | 103.95660 | 3831 ft | 185 kts | 350° |
| 2026-04-21 12:07 | 30.62676 | 103.95119 | 4490 ft | 204 kts | 339° |
| 2026-04-21 12:08 | 30.64032 | 103.94376 | 5122 ft | 226 kts | 337° |
| 2026-04-21 12:08 | 30.65490 | 103.93533 | 5847 ft | 245 kts | 336° |
| 2026-04-21 12:08 | 30.67057 | 103.92617 | 6596 ft | 264 kts | 336° |
| 2026-04-21 12:08 | 30.68725 | 103.91643 | 7552 ft | 274 kts | 336° |
| 2026-04-21 12:09 | 30.70441 | 103.90642 | 8607 ft | 281 kts | 336° |
| 2026-04-21 12:09 | 30.72171 | 103.89630 | 9631 ft | 287 kts | 336° |
| 2026-04-21 12:09 | 30.73916 | 103.88421 | 10630 ft | 296 kts | 321° |
| 2026-04-21 12:09 | 30.75184 | 103.86470 | 11273 ft | 319 kts | 294° |
| 2026-04-21 12:10 | 30.75618 | 103.83885 | 11871 ft | 341 kts | 268° |
| 2026-04-21 12:10 | 30.74988 | 103.81191 | 12450 ft | 361 kts | 241° |
| 2026-04-21 12:10 | 30.73392 | 103.78878 | 13158 ft | 374 kts | 225° |
| 2026-04-21 12:10 | 30.71496 | 103.76750 | 14106 ft | 381 kts | 223° |
| 2026-04-21 12:11 | 30.69589 | 103.74619 | 15077 ft | 386 kts | 224° |
| 2026-04-21 12:11 | 30.67694 | 103.72435 | 16105 ft | 387 kts | 226° |
| 2026-04-21 12:11 | 30.66126 | 103.69946 | 17002 ft | 390 kts | 245° |
| 2026-04-21 12:11 | 30.65404 | 103.66939 | 17819 ft | 393 kts | 265° |
| 2026-04-21 12:12 | 30.65626 | 103.63775 | 18625 ft | 396 kts | 283° |
| 2026-04-21 12:12 | 30.66375 | 103.60744 | 19520 ft | 396 kts | 285° |
| 2026-04-21 12:12 | 30.67156 | 103.57669 | 20453 ft | 396 kts | 285° |
| 2026-04-21 12:12 | 30.67922 | 103.54592 | 21035 ft | 400 kts | 285° |
| 2026-04-21 12:13 | 30.68675 | 103.51517 | 21682 ft | 403 kts | 285° |
| 2026-04-21 12:13 | 30.69437 | 103.48396 | 22373 ft | 403 kts | 285° |
| 2026-04-21 12:13 | 30.70197 | 103.45264 | 23008 ft | 403 kts | 285° |
| 2026-04-21 12:13 | 30.70951 | 103.42152 | 23566 ft | 405 kts | 284° |
| 2026-04-21 12:14 | 30.71711 | 103.39011 | 24345 ft | 402 kts | 284° |
| 2026-04-21 12:14 | 30.72459 | 103.35901 | 24962 ft | 402 kts | 285° |
| 2026-04-21 12:14 | 30.73217 | 103.32739 | 25466 ft | 405 kts | 283° |
| 2026-04-21 12:14 | 30.73971 | 103.29604 | 26003 ft | 407 kts | 283° |
| 2026-04-21 12:15 | 30.74729 | 103.26447 | 26500 ft | 409 kts | 284° |
| 2026-04-21 12:15 | 30.75497 | 103.23236 | 26928 ft | 412 kts | 284° |
| 2026-04-21 12:15 | 30.76264 | 103.20027 | 27362 ft | 414 kts | 284° |
| 2026-04-21 12:15 | 30.77032 | 103.16821 | 27859 ft | 415 kts | 283° |
| 2026-04-21 12:16 | 30.77800 | 103.13595 | 28264 ft | 417 kts | 282° |
| 2026-04-21 12:16 | 30.78580 | 103.10318 | 28638 ft | 419 kts | 282° |
| 2026-04-21 12:16 | 30.79328 | 103.07097 | 29140 ft | 418 kts | 281° |
| 2026-04-21 12:16 | 30.79916 | 103.03777 | 29536 ft | 418 kts | 277° |
| 2026-04-21 12:17 | 30.80306 | 103.00410 | 29796 ft | 420 kts | 273° |
| 2026-04-21 12:17 | 30.80489 | 102.97060 | 30189 ft | 419 kts | 269° |
| 2026-04-21 12:17 | 30.80491 | 102.93652 | 30507 ft | 420 kts | 267° |
| 2026-04-21 12:17 | 30.80439 | 102.90286 | 30989 ft | 416 kts | 267° |
| 2026-04-21 12:18 | 30.80379 | 102.86967 | 31473 ft | 413 kts | 266° |
| 2026-04-21 12:18 | 30.80319 | 102.83649 | 31918 ft | 410 kts | 266° |
| 2026-04-21 12:18 | 30.80258 | 102.80356 | 32225 ft | 410 kts | 266° |
| 2026-04-21 12:19 | 30.80128 | 102.73669 | 32436 ft | 418 kts | 266° |
| 2026-04-21 12:19 | 30.79998 | 102.66911 | 32613 ft | 424 kts | 266° |
| 2026-04-21 12:19 | 30.79931 | 102.63470 | 32728 ft | 426 kts | 266° |
| 2026-04-21 12:20 | 30.79870 | 102.60021 | 32923 ft | 426 kts | 266° |
| 2026-04-21 12:20 | 30.79802 | 102.56585 | 33142 ft | 425 kts | 266° |
| 2026-04-21 12:20 | 30.79736 | 102.53172 | 33365 ft | 423 kts | 265° |
| 2026-04-21 12:20 | 30.79667 | 102.49774 | 33601 ft | 422 kts | 266° |
| 2026-04-21 12:21 | 30.79594 | 102.46376 | 33800 ft | 421 kts | 266° |
| 2026-04-21 12:21 | 30.79524 | 102.43008 | 34031 ft | 420 kts | 266° |
| 2026-04-21 12:21 | 30.79451 | 102.39619 | 34320 ft | 416 kts | 266° |
| 2026-04-21 12:21 | 30.79378 | 102.36289 | 34516 ft | 415 kts | 266° |
| 2026-04-21 12:22 | 30.79303 | 102.32944 | 34526 ft | 414 kts | 266° |
| 2026-04-21 12:22 | 30.79154 | 102.26268 | 34511 ft | 412 kts | 266° |
| 2026-04-21 12:23 | 30.79004 | 102.19623 | 34503 ft | 411 kts | 265° |
| 2026-04-21 12:23 | 30.78846 | 102.12995 | 34469 ft | 411 kts | 266° |
| 2026-04-21 12:24 | 30.78688 | 102.06339 | 34436 ft | 410 kts | 266° |
| 2026-04-21 12:24 | 30.78525 | 101.99754 | 34420 ft | 411 kts | 266° |
| 2026-04-21 12:25 | 30.78382 | 101.93098 | 34432 ft | 413 kts | 267° |
| 2026-04-21 12:25 | 30.78638 | 101.86442 | 34440 ft | 413 kts | 272° |
| 2026-04-21 12:26 | 30.79188 | 101.79800 | 34461 ft | 414 kts | 272° |
| 2026-04-21 12:26 | 30.79738 | 101.73151 | 34515 ft | 414 kts | 272° |
| 2026-04-21 12:27 | 30.80283 | 101.66501 | 34520 ft | 414 kts | 273° |
| 2026-04-21 12:27 | 30.80831 | 101.59838 | 34509 ft | 414 kts | 272° |
| 2026-04-21 12:28 | 30.81374 | 101.53203 | 34555 ft | 413 kts | 272° |
| 2026-04-21 12:28 | 30.81912 | 101.46519 | 34574 ft | 416 kts | 273° |
| 2026-04-21 12:29 | 30.82449 | 101.39887 | 34551 ft | 415 kts | 273° |
| 2026-04-21 12:29 | 30.82984 | 101.33210 | 34579 ft | 417 kts | 272° |
| 2026-04-21 12:30 | 30.83515 | 101.26501 | 34575 ft | 416 kts | 272° |
| 2026-04-21 12:30 | 30.84039 | 101.19822 | 34550 ft | 419 kts | 273° |
| 2026-04-21 12:31 | 30.84574 | 101.13060 | 34543 ft | 418 kts | 273° |
| 2026-04-21 12:31 | 30.85094 | 101.06394 | 34564 ft | 418 kts | 272° |
| 2026-04-21 12:32 | 30.85618 | 100.99663 | 34564 ft | 418 kts | 273° |
| 2026-04-21 12:32 | 30.86131 | 100.92963 | 34561 ft | 418 kts | 273° |
| 2026-04-21 12:33 | 30.86645 | 100.86223 | 34577 ft | 418 kts | 272° |
| 2026-04-21 12:33 | 30.87155 | 100.79488 | 34563 ft | 420 kts | 272° |
| 2026-04-21 12:34 | 30.87657 | 100.72789 | 34588 ft | 419 kts | 273° |
| 2026-04-21 12:34 | 30.88161 | 100.66041 | 34585 ft | 418 kts | 272° |
| 2026-04-21 12:35 | 30.88664 | 100.59277 | 34593 ft | 420 kts | 272° |
| 2026-04-21 12:35 | 30.89163 | 100.52530 | 34619 ft | 419 kts | 272° |
| 2026-04-21 12:36 | 30.89654 | 100.45798 | 34611 ft | 420 kts | 272° |
| 2026-04-21 12:36 | 30.90144 | 100.39045 | 34627 ft | 418 kts | 272° |
| 2026-04-21 12:37 | 30.90627 | 100.32316 | 34651 ft | 418 kts | 272° |
| 2026-04-21 12:37 | 30.91108 | 100.25607 | 34627 ft | 419 kts | 272° |
| 2026-04-21 12:38 | 30.91592 | 100.18822 | 34628 ft | 420 kts | 271° |
| 2026-04-21 12:38 | 30.92062 | 100.12069 | 34631 ft | 421 kts | 272° |
| 2026-04-21 12:39 | 30.92531 | 100.05331 | 34687 ft | 419 kts | 272° |
| 2026-04-21 12:39 | 30.93011 | 99.98566 | 34701 ft | 420 kts | 272° |
| 2026-04-21 12:40 | 30.93555 | 99.91801 | 34683 ft | 422 kts | 272° |
| 2026-04-21 12:40 | 30.94101 | 99.85011 | 34682 ft | 421 kts | 272° |
| 2026-04-21 12:41 | 30.94640 | 99.78249 | 34681 ft | 421 kts | 272° |
| 2026-04-21 12:41 | 30.95170 | 99.71471 | 34653 ft | 421 kts | 272° |
| 2026-04-21 12:42 | 30.95693 | 99.64709 | 34676 ft | 421 kts | 273° |
| 2026-04-21 12:42 | 30.96222 | 99.57930 | 34644 ft | 419 kts | 272° |
| 2026-04-21 12:43 | 30.96736 | 99.51181 | 34677 ft | 418 kts | 272° |
| 2026-04-21 12:43 | 30.97248 | 99.44424 | 34654 ft | 420 kts | 273° |
| 2026-04-21 12:44 | 30.97759 | 99.37678 | 34619 ft | 419 kts | 273° |
| 2026-04-21 12:44 | 30.98266 | 99.30950 | 34641 ft | 420 kts | 272° |
| 2026-04-21 12:45 | 30.98769 | 99.24176 | 34633 ft | 420 kts | 272° |
| 2026-04-21 12:45 | 30.99266 | 99.17432 | 34643 ft | 419 kts | 272° |
| 2026-04-21 12:46 | 30.99764 | 99.10671 | 34616 ft | 419 kts | 272° |
| 2026-04-21 12:46 | 31.00258 | 99.03889 | 34623 ft | 421 kts | 272° |
| 2026-04-21 12:47 | 31.00746 | 98.97118 | 34628 ft | 419 kts | 272° |
| 2026-04-21 12:47 | 31.01229 | 98.90382 | 34646 ft | 419 kts | 272° |
| 2026-04-21 12:48 | 31.01702 | 98.83667 | 34639 ft | 418 kts | 272° |
| 2026-04-21 12:48 | 31.02178 | 98.76934 | 34658 ft | 418 kts | 272° |
| 2026-04-21 12:49 | 31.02649 | 98.70160 | 34646 ft | 420 kts | 272° |
| 2026-04-21 12:49 | 31.03143 | 98.63383 | 34649 ft | 421 kts | 273° |
| 2026-04-21 12:50 | 31.03725 | 98.56579 | 34666 ft | 423 kts | 273° |
| 2026-04-21 12:50 | 31.04296 | 98.49799 | 34676 ft | 421 kts | 273° |
| 2026-04-21 12:51 | 31.04859 | 98.43045 | 34660 ft | 422 kts | 273° |
| 2026-04-21 12:51 | 31.05417 | 98.36237 | 34679 ft | 423 kts | 272° |
| 2026-04-21 12:52 | 31.05962 | 98.29464 | 34661 ft | 422 kts | 273° |
| 2026-04-21 12:52 | 31.06512 | 98.22652 | 34673 ft | 423 kts | 272° |
| 2026-04-21 12:53 | 31.07058 | 98.15828 | 34675 ft | 423 kts | 272° |
| 2026-04-21 12:53 | 31.07604 | 98.09045 | 34690 ft | 422 kts | 272° |
| 2026-04-21 12:54 | 31.08163 | 98.02217 | 34696 ft | 422 kts | 272° |
| 2026-04-21 12:54 | 31.08710 | 97.95424 | 34714 ft | 422 kts | 272° |
| 2026-04-21 12:55 | 31.09254 | 97.88629 | 34734 ft | 423 kts | 272° |
| 2026-04-21 12:55 | 31.09798 | 97.81827 | 34718 ft | 423 kts | 272° |
| 2026-04-21 12:56 | 31.10328 | 97.75031 | 34714 ft | 424 kts | 273° |
| 2026-04-21 12:56 | 31.10862 | 97.68195 | 34723 ft | 421 kts | 272° |
| 2026-04-21 12:57 | 31.11387 | 97.61428 | 34706 ft | 420 kts | 272° |
| 2026-04-21 12:57 | 31.11909 | 97.54634 | 34708 ft | 422 kts | 272° |
| 2026-04-21 12:58 | 31.12424 | 97.47871 | 34696 ft | 421 kts | 272° |
| 2026-04-21 12:58 | 31.12937 | 97.41064 | 34707 ft | 421 kts | 272° |
| 2026-04-21 12:59 | 31.13443 | 97.34276 | 34694 ft | 419 kts | 272° |
| 2026-04-21 12:59 | 31.13927 | 97.27518 | 34708 ft | 419 kts | 270° |
| 2026-04-21 13:00 | 31.13995 | 97.20739 | 34720 ft | 418 kts | 265° |
| 2026-04-21 13:00 | 31.13508 | 97.14072 | 34715 ft | 414 kts | 260° |
| 2026-04-21 13:01 | 31.12469 | 97.07494 | 34698 ft | 413 kts | 255° |
| 2026-04-21 13:01 | 31.11087 | 97.00982 | 34683 ft | 413 kts | 255° |
| 2026-04-21 13:02 | 31.09700 | 96.94486 | 34698 ft | 412 kts | 255° |
| 2026-04-21 13:02 | 31.07623 | 96.84798 | 34723 ft | 412 kts | 255° |
| 2026-04-21 13:03 | 31.06230 | 96.78353 | 34695 ft | 411 kts | 254° |
| 2026-04-21 13:03 | 31.04835 | 96.71894 | 34723 ft | 411 kts | 254° |
| 2026-04-21 13:04 | 31.03440 | 96.65477 | 34730 ft | 410 kts | 254° |
| 2026-04-21 13:04 | 31.02046 | 96.59071 | 34731 ft | 409 kts | 255° |
| 2026-04-21 13:05 | 31.00638 | 96.52635 | 34736 ft | 409 kts | 255° |
| 2026-04-21 13:05 | 30.99236 | 96.46222 | 34705 ft | 410 kts | 254° |
| 2026-04-21 13:06 | 30.97840 | 96.39818 | 34736 ft | 408 kts | 255° |
| 2026-04-21 13:06 | 30.96497 | 96.33410 | 34739 ft | 409 kts | 254° |
| 2026-04-21 13:07 | 30.95140 | 96.26980 | 34725 ft | 408 kts | 254° |
| 2026-04-21 13:07 | 30.93782 | 96.20582 | 34745 ft | 408 kts | 254° |
| 2026-04-21 13:08 | 30.92434 | 96.14223 | 34753 ft | 408 kts | 254° |
| 2026-04-21 13:08 | 30.91092 | 96.07948 | 34758 ft | 408 kts | 255° |
| 2026-04-21 13:09 | 30.89728 | 96.01566 | 34759 ft | 407 kts | 254° |
| 2026-04-21 13:09 | 30.88358 | 95.95180 | 34759 ft | 407 kts | 254° |
| 2026-04-21 13:10 | 30.86977 | 95.88769 | 34753 ft | 407 kts | 254° |
| 2026-04-21 13:10 | 30.85598 | 95.82397 | 34742 ft | 409 kts | 255° |
| 2026-04-21 13:11 | 30.84219 | 95.76014 | 34740 ft | 411 kts | 255° |
| 2026-04-21 13:11 | 30.82860 | 95.69591 | 34735 ft | 409 kts | 255° |
| 2026-04-21 13:12 | 30.81543 | 95.63158 | 34744 ft | 408 kts | 255° |
| 2026-04-21 13:12 | 30.80234 | 95.56789 | 34704 ft | 409 kts | 255° |
| 2026-04-21 13:13 | 30.78901 | 95.50329 | 34750 ft | 412 kts | 255° |
| 2026-04-21 13:13 | 30.77563 | 95.43878 | 34734 ft | 410 kts | 255° |
| 2026-04-21 13:14 | 30.76221 | 95.37426 | 34723 ft | 413 kts | 255° |
| 2026-04-21 13:14 | 30.74863 | 95.30946 | 34735 ft | 412 kts | 255° |
| 2026-04-21 13:15 | 30.73514 | 95.24487 | 34749 ft | 414 kts | 255° |
| 2026-04-21 13:15 | 30.72153 | 95.18009 | 34736 ft | 414 kts | 255° |
| 2026-04-21 13:16 | 30.70790 | 95.11531 | 34753 ft | 413 kts | 255° |
| 2026-04-21 13:16 | 30.69428 | 95.05070 | 34761 ft | 414 kts | 255° |
| 2026-04-21 13:17 | 30.68057 | 94.98586 | 34764 ft | 414 kts | 255° |
| 2026-04-21 13:17 | 30.66690 | 94.92143 | 34771 ft | 415 kts | 255° |
| 2026-04-21 13:18 | 30.65305 | 94.85626 | 34799 ft | 415 kts | 255° |
| 2026-04-21 13:18 | 30.63919 | 94.79143 | 34776 ft | 413 kts | 256° |
| 2026-04-21 13:19 | 30.62536 | 94.72665 | 34759 ft | 414 kts | 255° |
| 2026-04-21 13:19 | 30.61150 | 94.66212 | 34818 ft | 415 kts | 256° |
| 2026-04-21 13:20 | 30.59756 | 94.59724 | 34798 ft | 414 kts | 256° |
| 2026-04-21 13:20 | 30.58366 | 94.53251 | 34758 ft | 414 kts | 255° |
| 2026-04-21 13:21 | 30.56965 | 94.46783 | 34753 ft | 416 kts | 256° |
| 2026-04-21 13:21 | 30.55557 | 94.40287 | 34759 ft | 415 kts | 255° |
| 2026-04-21 13:22 | 30.54147 | 94.33800 | 34782 ft | 415 kts | 255° |
| 2026-04-21 13:22 | 30.52725 | 94.27277 | 34846 ft | 419 kts | 255° |
| 2026-04-21 13:23 | 30.51300 | 94.20767 | 34871 ft | 416 kts | 255° |
| 2026-04-21 13:23 | 30.49942 | 94.14288 | 34803 ft | 417 kts | 256° |
| 2026-04-21 13:24 | 30.48589 | 94.07734 | 34812 ft | 417 kts | 256° |
| 2026-04-21 13:24 | 30.47237 | 94.01224 | 34794 ft | 417 kts | 256° |
| 2026-04-21 13:25 | 30.45880 | 93.94713 | 34813 ft | 417 kts | 256° |
| 2026-04-21 13:25 | 30.44512 | 93.88175 | 34808 ft | 418 kts | 256° |
| 2026-04-21 13:26 | 30.43142 | 93.81649 | 34824 ft | 419 kts | 256° |
| 2026-04-21 13:26 | 30.41752 | 93.75070 | 34896 ft | 419 kts | 256° |
| 2026-04-21 13:27 | 30.40374 | 93.68534 | 34856 ft | 419 kts | 256° |
| 2026-04-21 13:27 | 30.38847 | 93.62033 | 34853 ft | 419 kts | 252° |
| 2026-04-21 13:28 | 30.36795 | 93.55733 | 34910 ft | 420 kts | 248° |
| 2026-04-21 13:28 | 30.34351 | 93.49606 | 34918 ft | 419 kts | 246° |
| 2026-04-21 13:29 | 30.31894 | 93.43531 | 34912 ft | 420 kts | 247° |
| 2026-04-21 13:29 | 30.29409 | 93.37401 | 34897 ft | 420 kts | 246° |
| 2026-04-21 13:30 | 30.26929 | 93.31301 | 34894 ft | 420 kts | 246° |
| 2026-04-21 13:30 | 30.24447 | 93.25217 | 34646 ft | 416 kts | 246° |
| 2026-04-21 13:31 | 30.23227 | 93.22218 | 34390 ft | 416 kts | 246° |
| 2026-04-21 13:31 | 30.21987 | 93.19186 | 34268 ft | 416 kts | 246° |
| 2026-04-21 13:31 | 30.20765 | 93.16199 | 34093 ft | 415 kts | 246° |
| 2026-04-21 13:31 | 30.19525 | 93.13168 | 33950 ft | 417 kts | 246° |
| 2026-04-21 13:32 | 30.18287 | 93.10144 | 33779 ft | 419 kts | 246° |
| 2026-04-21 13:32 | 30.17043 | 93.07111 | 33628 ft | 419 kts | 246° |
| 2026-04-21 13:32 | 30.15794 | 93.04063 | 33496 ft | 420 kts | 246° |
| 2026-04-21 13:32 | 30.14533 | 93.00993 | 33356 ft | 421 kts | 246° |
| 2026-04-21 13:33 | 30.13283 | 92.97952 | 33171 ft | 422 kts | 246° |
| 2026-04-21 13:33 | 30.12028 | 92.94909 | 32950 ft | 423 kts | 246° |
| 2026-04-21 13:33 | 30.10772 | 92.91853 | 32731 ft | 425 kts | 246° |
| 2026-04-21 13:33 | 30.09500 | 92.88766 | 32527 ft | 426 kts | 246° |
| 2026-04-21 13:34 | 30.08235 | 92.85691 | 32299 ft | 425 kts | 246° |
| 2026-04-21 13:34 | 30.06962 | 92.82608 | 32068 ft | 426 kts | 246° |
| 2026-04-21 13:34 | 30.05671 | 92.79483 | 31857 ft | 430 kts | 246° |
| 2026-04-21 13:34 | 30.04394 | 92.76395 | 31653 ft | 430 kts | 246° |
| 2026-04-21 13:35 | 30.03112 | 92.73292 | 31417 ft | 430 kts | 246° |
| 2026-04-21 13:35 | 30.01827 | 92.70187 | 31140 ft | 430 kts | 246° |
| 2026-04-21 13:35 | 30.00544 | 92.67094 | 30883 ft | 431 kts | 246° |
| 2026-04-21 13:35 | 29.99252 | 92.63978 | 30600 ft | 433 kts | 246° |
| 2026-04-21 13:36 | 29.97943 | 92.60820 | 30337 ft | 434 kts | 246° |
| 2026-04-21 13:36 | 29.96635 | 92.57680 | 30063 ft | 434 kts | 246° |
| 2026-04-21 13:36 | 29.95351 | 92.54587 | 29809 ft | 431 kts | 246° |
| 2026-04-21 13:36 | 29.94054 | 92.51469 | 29541 ft | 428 kts | 247° |
| 2026-04-21 13:37 | 29.92784 | 92.48415 | 29284 ft | 426 kts | 246° |
| 2026-04-21 13:37 | 29.91493 | 92.45311 | 29019 ft | 426 kts | 246° |
| 2026-04-21 13:37 | 29.90219 | 92.42261 | 28741 ft | 424 kts | 246° |
| 2026-04-21 13:37 | 29.88943 | 92.39207 | 28491 ft | 422 kts | 247° |
| 2026-04-21 13:38 | 29.87685 | 92.36186 | 28229 ft | 424 kts | 246° |
| 2026-04-21 13:38 | 29.86412 | 92.33141 | 27967 ft | 422 kts | 246° |
| 2026-04-21 13:38 | 29.85144 | 92.30114 | 27715 ft | 420 kts | 245° |
| 2026-04-21 13:38 | 29.83870 | 92.27073 | 27461 ft | 417 kts | 246° |
| 2026-04-21 13:39 | 29.82626 | 92.24103 | 27207 ft | 415 kts | 245° |
| 2026-04-21 13:39 | 29.81374 | 92.21114 | 26995 ft | 415 kts | 246° |
| 2026-04-21 13:39 | 29.80122 | 92.18133 | 26810 ft | 414 kts | 245° |
| 2026-04-21 13:39 | 29.78858 | 92.15121 | 26610 ft | 415 kts | 245° |
| 2026-04-21 13:40 | 29.77602 | 92.12137 | 26473 ft | 412 kts | 245° |
| 2026-04-21 13:40 | 29.76369 | 92.09205 | 26395 ft | 413 kts | 246° |
| 2026-04-21 13:40 | 29.75120 | 92.06239 | 26295 ft | 412 kts | 245° |
| 2026-04-21 13:40 | 29.73863 | 92.03257 | 26136 ft | 411 kts | 246° |
| 2026-04-21 13:41 | 29.72636 | 92.00346 | 25977 ft | 410 kts | 245° |
| 2026-04-21 13:41 | 29.71382 | 91.97370 | 25823 ft | 411 kts | 245° |
| 2026-04-21 13:41 | 29.70149 | 91.94449 | 25540 ft | 408 kts | 246° |
| 2026-04-21 13:41 | 29.68911 | 91.91515 | 25280 ft | 407 kts | 245° |
| 2026-04-21 13:42 | 29.67684 | 91.88616 | 25025 ft | 405 kts | 245° |
| 2026-04-21 13:42 | 29.66456 | 91.85712 | 24773 ft | 403 kts | 245° |
| 2026-04-21 13:42 | 29.65222 | 91.82801 | 24592 ft | 404 kts | 245° |
| 2026-04-21 13:42 | 29.63993 | 91.79902 | 24547 ft | 403 kts | 245° |
| 2026-04-21 13:43 | 29.62767 | 91.77016 | 24357 ft | 402 kts | 245° |
| 2026-04-21 13:43 | 29.61550 | 91.74149 | 24113 ft | 401 kts | 245° |
| 2026-04-21 13:43 | 29.60331 | 91.71281 | 23868 ft | 402 kts | 245° |
| 2026-04-21 13:43 | 29.59105 | 91.68401 | 23625 ft | 400 kts | 245° |
| 2026-04-21 13:44 | 29.57890 | 91.65543 | 23433 ft | 399 kts | 245° |
| 2026-04-21 13:44 | 29.56674 | 91.62688 | 23429 ft | 399 kts | 245° |
| 2026-04-21 13:44 | 29.55444 | 91.59808 | 23412 ft | 399 kts | 245° |
| 2026-04-21 13:44 | 29.54225 | 91.56950 | 23280 ft | 400 kts | 246° |
| 2026-04-21 13:45 | 29.53001 | 91.54081 | 23087 ft | 398 kts | 246° |
| 2026-04-21 13:45 | 29.51797 | 91.51260 | 22862 ft | 397 kts | 245° |
| 2026-04-21 13:45 | 29.50580 | 91.48412 | 22663 ft | 397 kts | 246° |
| 2026-04-21 13:45 | 29.49385 | 91.45613 | 22307 ft | 394 kts | 245° |
| 2026-04-21 13:46 | 29.48171 | 91.42780 | 21471 ft | 401 kts | 245° |
| 2026-04-21 13:46 | 29.46927 | 91.39874 | 20639 ft | 407 kts | 245° |
| 2026-04-21 13:46 | 29.45683 | 91.36966 | 19980 ft | 407 kts | 245° |
| 2026-04-21 13:46 | 29.44444 | 91.34087 | 19628 ft | 397 kts | 245° |
| 2026-04-21 13:47 | 29.43249 | 91.31302 | 19352 ft | 387 kts | 245° |
| 2026-04-21 13:47 | 29.42067 | 91.28551 | 19071 ft | 380 kts | 244° |
| 2026-04-21 13:47 | 29.40902 | 91.25833 | 18331 ft | 383 kts | 244° |
| 2026-04-21 13:47 | 29.39743 | 91.23158 | 17908 ft | 377 kts | 244° |
| 2026-04-21 13:48 | 29.38586 | 91.20473 | 17518 ft | 369 kts | 245° |
| 2026-04-21 13:48 | 29.37466 | 91.17874 | 17147 ft | 363 kts | 244° |
| 2026-04-21 13:48 | 29.36371 | 91.15323 | 16700 ft | 348 kts | 244° |
| 2026-04-21 13:48 | 29.35320 | 91.12889 | 16233 ft | 339 kts | 244° |
| 2026-04-21 13:49 | 29.34296 | 91.10518 | 15748 ft | 327 kts | 244° |
| 2026-04-21 13:49 | 29.33304 | 91.08221 | 15389 ft | 309 kts | 243° |
| 2026-04-21 13:49 | 29.32383 | 91.06089 | 15007 ft | 294 kts | 243° |
| 2026-04-21 13:49 | 29.31491 | 91.04031 | 14578 ft | 283 kts | 243° |
| 2026-04-21 13:50 | 29.30626 | 91.02036 | 14193 ft | 281 kts | 243° |
| 2026-04-21 13:50 | 29.29968 | 90.99966 | 13814 ft | 280 kts | 259° |
| 2026-04-21 13:50 | 29.29847 | 90.97716 | 13488 ft | 281 kts | 270° |
| 2026-04-21 13:50 | 29.29889 | 90.95493 | 13352 ft | 283 kts | 267° |
| 2026-04-21 13:51 | 29.29829 | 90.93257 | 12736 ft | 281 kts | 267° |
| 2026-04-21 13:51 | 29.29800 | 90.90994 | 12812 ft | 282 kts | 268° |
| 2026-04-21 13:51 | 29.29819 | 90.88768 | 12954 ft | 282 kts | 270° |
| 2026-04-21 13:51 | 29.29889 | 90.86528 | 13102 ft | 282 kts | 270° |
| 2026-04-21 13:52 | 29.30006 | 90.84286 | 13251 ft | 282 kts | 272° |
| 2026-04-21 13:52 | 29.30161 | 90.82041 | 13360 ft | 284 kts | 271° |
| 2026-04-21 13:52 | 29.30240 | 90.79791 | 13364 ft | 282 kts | 270° |
| 2026-04-21 13:52 | 29.30203 | 90.77560 | 13362 ft | 282 kts | 257° |
| 2026-04-21 13:53 | 29.29340 | 90.75573 | 13537 ft | 281 kts | 224° |
| 2026-04-21 13:53 | 29.27742 | 90.74332 | 13855 ft | 280 kts | 201° |
| 2026-04-21 13:53 | 29.25843 | 90.73967 | 14371 ft | 269 kts | 174° |
| 2026-04-21 13:53 | 29.24252 | 90.74589 | 15481 ft | 234 kts | 148° |
| 2026-04-21 13:54 | 29.23015 | 90.75742 | 15964 ft | 231 kts | 141° |
| 2026-04-21 13:54 | 29.21863 | 90.77087 | 16151 ft | 243 kts | 131° |
| 2026-04-21 13:54 | 29.21029 | 90.78798 | 16307 ft | 257 kts | 107° |
| 2026-04-21 13:54 | 29.20901 | 90.80890 | 16496 ft | 271 kts | 86° |
| 2026-04-21 13:55 | 29.21123 | 90.83096 | 16620 ft | 294 kts | 83° |
| 2026-04-21 13:55 | 29.21369 | 90.85514 | 16545 ft | 314 kts | 84° |
| 2026-04-21 13:55 | 29.21568 | 90.88021 | 16495 ft | 318 kts | 86° |
| 2026-04-21 13:55 | 29.21723 | 90.90550 | 16482 ft | 319 kts | 87° |
| 2026-04-21 13:56 | 29.21846 | 90.93102 | 16483 ft | 320 kts | 88° |
| 2026-04-21 13:56 | 29.21950 | 90.95648 | 16487 ft | 319 kts | 88° |
| 2026-04-21 13:56 | 29.22045 | 90.98166 | 16485 ft | 320 kts | 88° |
| 2026-04-21 13:56 | 29.22137 | 91.00699 | 16476 ft | 320 kts | 88° |
| 2026-04-21 13:57 | 29.22227 | 91.03239 | 16469 ft | 319 kts | 89° |
| 2026-04-21 13:57 | 29.22319 | 91.05785 | 16471 ft | 318 kts | 89° |
| 2026-04-21 13:57 | 29.22408 | 91.08294 | 16465 ft | 318 kts | 89° |
| 2026-04-21 13:57 | 29.22496 | 91.10832 | 16459 ft | 319 kts | 89° |
| 2026-04-21 13:58 | 29.22580 | 91.13361 | 16462 ft | 320 kts | 89° |
| 2026-04-21 13:58 | 29.22666 | 91.15885 | 16458 ft | 315 kts | 89° |
| 2026-04-21 13:58 | 29.22750 | 91.18375 | 16438 ft | 311 kts | 89° |
| 2026-04-21 13:58 | 29.22837 | 91.20857 | 16435 ft | 315 kts | 89° |
| 2026-04-21 13:59 | 29.22919 | 91.23374 | 16438 ft | 315 kts | 89° |
| 2026-04-21 13:59 | 29.23000 | 91.25858 | 16439 ft | 316 kts | 88° |
| 2026-04-21 13:59 | 29.23079 | 91.28363 | 16430 ft | 315 kts | 88° |
| 2026-04-21 13:59 | 29.23169 | 91.30866 | 16427 ft | 316 kts | 88° |
| 2026-04-21 14:00 | 29.23258 | 91.33401 | 16429 ft | 314 kts | 88° |
| 2026-04-21 14:00 | 29.23337 | 91.35849 | 16414 ft | 302 kts | 88° |
| 2026-04-21 14:00 | 29.23439 | 91.38191 | 16416 ft | 295 kts | 83° |
| 2026-04-21 14:00 | 29.23943 | 91.40474 | 16417 ft | 293 kts | 66° |
| 2026-04-21 14:01 | 29.24934 | 91.42488 | 16409 ft | 294 kts | 52° |
| 2026-04-21 14:01 | 29.26364 | 91.44177 | 16449 ft | 294 kts | 37° |
| 2026-04-21 14:01 | 29.28095 | 91.45379 | 16471 ft | 291 kts | 22° |
| 2026-04-21 14:01 | 29.30024 | 91.46075 | 16564 ft | 288 kts | 2° |
| 2026-04-21 14:02 | 29.31951 | 91.45679 | 16807 ft | 286 kts | 332° |
| 2026-04-21 14:02 | 29.33436 | 91.44230 | 16918 ft | 282 kts | 298° |
| 2026-04-21 14:02 | 29.34129 | 91.42133 | 16945 ft | 281 kts | 286° |
| 2026-04-21 14:03 | 29.34174 | 91.37811 | 16963 ft | 283 kts | 245° |
| 2026-04-21 14:03 | 29.33251 | 91.35870 | 16962 ft | 261 kts | 243° |
| 2026-04-21 14:03 | 29.32471 | 91.34144 | 16927 ft | 236 kts | 246° |
| 2026-04-21 14:03 | 29.31823 | 91.32427 | 16927 ft | 231 kts | 249° |
| 2026-04-21 14:04 | 29.31249 | 91.30733 | 17036 ft | 228 kts | 249° |
| 2026-04-21 14:04 | 29.30723 | 91.29113 | 17035 ft | 204 kts | 253° |
| 2026-04-21 14:04 | 29.30411 | 91.27611 | 17026 ft | 192 kts | 263° |
| 2026-04-21 14:04 | 29.30272 | 91.26091 | 17028 ft | 190 kts | 268° |
| 2026-04-21 14:05 | 29.30213 | 91.24579 | 17012 ft | 189 kts | 271° |
| 2026-04-21 14:05 | 29.30241 | 91.23070 | 16941 ft | 188 kts | 270° |
| 2026-04-21 14:05 | 29.30300 | 91.21591 | 16873 ft | 182 kts | 270° |
| 2026-04-21 14:05 | 29.30267 | 91.20165 | 16724 ft | 181 kts | 266° |
| 2026-04-21 14:06 | 29.30209 | 91.18727 | 16394 ft | 181 kts | 267° |
| 2026-04-21 14:06 | 29.30185 | 91.17294 | 15986 ft | 182 kts | 267° |
| 2026-04-21 14:06 | 29.30149 | 91.15816 | 15380 ft | 191 kts | 270° |
| 2026-04-21 14:06 | 29.30074 | 91.14286 | 14780 ft | 196 kts | 267° |
| 2026-04-21 14:07 | 29.30021 | 91.12785 | 14552 ft | 179 kts | 267° |
| 2026-04-21 14:07 | 29.30025 | 91.11375 | 14442 ft | 176 kts | 269° |
| 2026-04-21 14:07 | 29.30089 | 91.09975 | 14283 ft | 176 kts | 271° |
| 2026-04-21 14:07 | 29.30137 | 91.08590 | 14119 ft | 175 kts | 265° |
| 2026-04-21 14:08 | 29.30082 | 91.07201 | 13858 ft | 174 kts | 262° |
| 2026-04-21 14:08 | 29.30018 | 91.05819 | 13612 ft | 172 kts | 265° |
| 2026-04-21 14:08 | 29.30015 | 91.04466 | 13458 ft | 172 kts | 267° |
| 2026-04-21 14:08 | 29.29964 | 91.03092 | 13353 ft | 171 kts | 264° |
| 2026-04-21 14:09 | 29.29898 | 91.01739 | 13202 ft | 171 kts | 267° |
| 2026-04-21 14:09 | 29.29905 | 91.00366 | 12921 ft | 176 kts | 269° |
| 2026-04-21 14:09 | 29.29915 | 90.98939 | 12741 ft | 182 kts | 266° |
| 2026-04-21 14:09 | 29.29876 | 90.97486 | 12571 ft | 177 kts | 265° |
| 2026-04-21 14:10 | 29.29860 | 90.96123 | 12356 ft | 167 kts | 267° |
| 2026-04-21 14:10 | 29.29848 | 90.94833 | 12175 ft | 157 kts | 264° |
| 2026-04-21 14:10 | 29.29828 | 90.93638 | 11982 ft | 143 kts | 265° |
| 2026-04-21 14:10 | 29.29817 | 90.92529 | 11909 ft | 131 kts | 266° |
| 2026-04-21 14:11 | 29.29810 | 90.91830 | 11909 ft | 43 kts | 272° |
| 2026-04-21 14:11 | 29.29806 | 90.91595 | 11909 ft | 37 kts | 267° |
| 2026-04-21 14:11 | 29.29800 | 90.91234 | 11909 ft | 44 kts | 266° |
| 2026-04-21 14:11 | 29.29797 | 90.90896 | 11912 ft | 40 kts | 268° |
| 2026-04-21 14:12 | 29.29793 | 90.90602 | 11917 ft | 34 kts | 260° |
| 2026-04-21 14:12 | 29.29724 | 90.90362 | 11918 ft | 30 kts | 246° |
| 2026-04-21 14:12 | 29.29637 | 90.90157 | 11916 ft | 27 kts | 247° |
| 2026-04-21 14:12 | 29.29609 | 90.90015 | 11916 ft | 13 kts | 210° |
| 2026-04-21 14:13 | 29.29528 | 90.89994 | 11918 ft | 11 kts | 197° |
| 2026-04-21 14:13 | 29.29456 | 90.89990 | 11919 ft | 9 kts | 180° |
| 2026-04-21 14:13 | 29.29437 | 90.89990 | 11919 ft | 0 kts | 179° |
| 2026-04-21 14:14 | 29.29432 | 90.89990 | 11919 ft | 0 kts | 179° |